sensor_id;sensor_type;location;lat;lon;timestamp;temperature;humidity
18839;DHT22;9548;56.920;14.804;2022-10-04T00:02:22;6.10;99.90
18839;DHT22;9548;56.920;14.804;2022-10-04T00:04:53;6.10;99.90
18839;DHT22;9548;56.920;14.804;2022-10-04T00:07:27;6.00;99.90
18839;DHT22;9548;56.920;14.804;2022-10-04T00:09:56;6.00;99.90
18839;DHT22;9548;56.920;14.804;2022-10-04T00:12:26;5.90;99.90
18839;DHT22;9548;56.920;14.804;2022-10-04T00:14:57;5.80;99.90
18839;DHT22;9548;56.920;14.804;2022-10-04T00:17:27;5.70;99.90
18839;DHT22;9548;56.920;14.804;2022-10-04T00:19:57;5.60;99.90
18839;DHT22;9548;56.920;14.804;2022-10-04T00:22:27;5.50;99.90
18839;DHT22;9548;56.920;14.804;2022-10-04T00:25:16;5.50;99.90
18839;DHT22;9548;56.920;14.804;2022-10-04T00:33:57;5.30;99.90
18839;DHT22;9548;56.920;14.804;2022-10-04T00:36:54;5.30;99.90
18839;DHT22;9548;56.920;14.804;2022-10-04T00:39:39;5.20;99.90
18839;DHT22;9548;56.920;14.804;2022-10-04T00:42:34;5.20;99.90
18839;DHT22;9548;56.920;14.804;2022-10-04T00:48:04;5.30;99.90
18839;DHT22;9548;56.920;14.804;2022-10-04T00:50:38;5.20;99.90
18839;DHT22;9548;56.920;14.804;2022-10-04T00:53:17;5.20;99.90
18839;DHT22;9548;56.920;14.804;2022-10-04T00:55:47;5.10;99.90
18839;DHT22;9548;56.920;14.804;2022-10-04T00:58:19;5.10;99.90
18839;DHT22;9548;56.920;14.804;2022-10-04T01:00:48;5.10;99.90
18839;DHT22;9548;56.920;14.804;2022-10-04T01:03:20;5.10;99.90
18839;DHT22;9548;56.920;14.804;2022-10-04T01:05:54;5.10;99.90
18839;DHT22;9548;56.920;14.804;2022-10-04T01:08:26;5.30;99.90
18839;DHT22;9548;56.920;14.804;2022-10-04T01:10:58;5.30;99.90
18839;DHT22;9548;56.920;14.804;2022-10-04T01:13:29;5.30;99.90
18839;DHT22;9548;56.920;14.804;2022-10-04T01:16:00;5.20;99.90
18839;DHT22;9548;56.920;14.804;2022-10-04T01:18:31;5.10;99.90
18839;DHT22;9548;56.920;14.804;2022-10-04T01:21:03;5.10;99.90
18839;DHT22;9548;56.920;14.804;2022-10-04T01:23:37;5.00;99.90
18839;DHT22;9548;56.920;14.804;2022-10-04T01:26:39;5.00;99.90
18839;DHT22;9548;56.920;14.804;2022-10-04T01:29:11;4.90;99.90
18839;DHT22;9548;56.920;14.804;2022-10-04T01:31:40;5.10;99.90
18839;DHT22;9548;56.920;14.804;2022-10-04T01:34:10;5.20;99.90
18839;DHT22;9548;56.920;14.804;2022-10-04T01:36:37;5.20;99.90
18839;DHT22;9548;56.920;14.804;2022-10-04T01:39:06;5.10;99.90
18839;DHT22;9548;56.920;14.804;2022-10-04T01:41:41;5.30;99.90
18839;DHT22;9548;56.920;14.804;2022-10-04T01:44:16;5.40;99.90
18839;DHT22;9548;56.920;14.804;2022-10-04T01:46:45;5.50;99.90
18839;DHT22;9548;56.920;14.804;2022-10-04T01:49:16;5.70;99.90
18839;DHT22;9548;56.920;14.804;2022-10-04T01:51:50;5.80;99.90
18839;DHT22;9548;56.920;14.804;2022-10-04T01:54:30;5.90;99.90
18839;DHT22;9548;56.920;14.804;2022-10-04T01:57:01;6.00;99.90
18839;DHT22;9548;56.920;14.804;2022-10-04T01:59:36;6.10;99.90
18839;DHT22;9548;56.920;14.804;2022-10-04T02:02:07;6.10;99.90
18839;DHT22;9548;56.920;14.804;2022-10-04T02:04:36;6.20;99.90
18839;DHT22;9548;56.920;14.804;2022-10-04T02:07:10;6.10;99.90
18839;DHT22;9548;56.920;14.804;2022-10-04T02:09:42;6.10;99.90
18839;DHT22;9548;56.920;14.804;2022-10-04T02:12:13;6.10;99.90
18839;DHT22;9548;56.920;14.804;2022-10-04T02:14:45;6.00;99.90
18839;DHT22;9548;56.920;14.804;2022-10-04T02:17:15;6.00;99.90
18839;DHT22;9548;56.920;14.804;2022-10-04T02:19:43;6.00;99.90
18839;DHT22;9548;56.920;14.804;2022-10-04T02:22:10;6.00;99.90
18839;DHT22;9548;56.920;14.804;2022-10-04T02:24:42;6.10;99.90
18839;DHT22;9548;56.920;14.804;2022-10-04T02:27:10;6.00;99.90
18839;DHT22;9548;56.920;14.804;2022-10-04T02:29:37;6.00;99.90
18839;DHT22;9548;56.920;14.804;2022-10-04T02:32:05;5.90;99.90
18839;DHT22;9548;56.920;14.804;2022-10-04T02:34:50;5.90;99.90
18839;DHT22;9548;56.920;14.804;2022-10-04T02:37:20;5.80;99.90
18839;DHT22;9548;56.920;14.804;2022-10-04T02:39:53;5.90;99.90
18839;DHT22;9548;56.920;14.804;2022-10-04T02:42:31;5.90;99.90
18839;DHT22;9548;56.920;14.804;2022-10-04T02:45:04;5.80;99.90
18839;DHT22;9548;56.920;14.804;2022-10-04T02:47:41;5.80;99.90
18839;DHT22;9548;56.920;14.804;2022-10-04T02:50:20;5.80;99.90
18839;DHT22;9548;56.920;14.804;2022-10-04T02:52:52;5.80;99.90
18839;DHT22;9548;56.920;14.804;2022-10-04T02:55:26;5.80;99.90
18839;DHT22;9548;56.920;14.804;2022-10-04T02:57:54;5.70;99.90
18839;DHT22;9548;56.920;14.804;2022-10-04T03:00:23;5.70;99.90
18839;DHT22;9548;56.920;14.804;2022-10-04T03:03:14;5.70;99.90
18839;DHT22;9548;56.920;14.804;2022-10-04T03:05:45;5.80;99.90
18839;DHT22;9548;56.920;14.804;2022-10-04T03:08:13;5.80;99.90
18839;DHT22;9548;56.920;14.804;2022-10-04T03:10:42;5.80;99.90
18839;DHT22;9548;56.920;14.804;2022-10-04T03:13:11;5.80;99.90
18839;DHT22;9548;56.920;14.804;2022-10-04T03:15:39;5.80;99.90
18839;DHT22;9548;56.920;14.804;2022-10-04T03:18:06;5.70;99.90
18839;DHT22;9548;56.920;14.804;2022-10-04T03:20:36;5.70;99.90
18839;DHT22;9548;56.920;14.804;2022-10-04T03:23:03;5.70;99.90
18839;DHT22;9548;56.920;14.804;2022-10-04T03:25:40;5.80;99.90
18839;DHT22;9548;56.920;14.804;2022-10-04T03:28:11;5.80;99.90
18839;DHT22;9548;56.920;14.804;2022-10-04T03:30:42;5.80;99.90
18839;DHT22;9548;56.920;14.804;2022-10-04T03:33:15;5.70;99.90
18839;DHT22;9548;56.920;14.804;2022-10-04T03:35:46;5.70;99.90
18839;DHT22;9548;56.920;14.804;2022-10-04T03:38:14;5.70;99.90
18839;DHT22;9548;56.920;14.804;2022-10-04T03:40:48;5.70;99.90
18839;DHT22;9548;56.920;14.804;2022-10-04T03:43:18;5.70;99.90
18839;DHT22;9548;56.920;14.804;2022-10-04T03:45:46;5.70;99.90
18839;DHT22;9548;56.920;14.804;2022-10-04T03:48:20;5.70;99.90
18839;DHT22;9548;56.920;14.804;2022-10-04T03:50:49;5.70;99.90
18839;DHT22;9548;56.920;14.804;2022-10-04T03:53:26;5.70;99.90
18839;DHT22;9548;56.920;14.804;2022-10-04T03:55:53;5.60;99.90
18839;DHT22;9548;56.920;14.804;2022-10-04T03:58:23;5.60;99.90
18839;DHT22;9548;56.920;14.804;2022-10-04T04:01:01;5.60;99.90
18839;DHT22;9548;56.920;14.804;2022-10-04T04:03:34;5.60;99.90
18839;DHT22;9548;56.920;14.804;2022-10-04T04:06:09;5.50;99.90
18839;DHT22;9548;56.920;14.804;2022-10-04T04:08:41;5.50;99.90
18839;DHT22;9548;56.920;14.804;2022-10-04T04:11:15;5.50;99.90
18839;DHT22;9548;56.920;14.804;2022-10-04T04:13:48;5.50;99.90
18839;DHT22;9548;56.920;14.804;2022-10-04T04:16:18;5.50;99.90
18839;DHT22;9548;56.920;14.804;2022-10-04T04:18:47;5.50;99.90
18839;DHT22;9548;56.920;14.804;2022-10-04T04:21:17;5.50;99.90
18839;DHT22;9548;56.920;14.804;2022-10-04T04:23:52;5.50;99.90
18839;DHT22;9548;56.920;14.804;2022-10-04T04:26:25;5.50;99.90
18839;DHT22;9548;56.920;14.804;2022-10-04T04:29:00;5.50;99.90
18839;DHT22;9548;56.920;14.804;2022-10-04T04:31:32;5.50;99.90
18839;DHT22;9548;56.920;14.804;2022-10-04T04:34:00;5.50;99.90
18839;DHT22;9548;56.920;14.804;2022-10-04T04:36:29;5.50;99.90
18839;DHT22;9548;56.920;14.804;2022-10-04T04:39:06;5.40;99.90
18839;DHT22;9548;56.920;14.804;2022-10-04T04:41:51;5.40;99.90
18839;DHT22;9548;56.920;14.804;2022-10-04T04:44:20;5.30;99.90
18839;DHT22;9548;56.920;14.804;2022-10-04T04:46:47;5.30;99.90
18839;DHT22;9548;56.920;14.804;2022-10-04T04:49:17;5.10;99.90
18839;DHT22;9548;56.920;14.804;2022-10-04T04:51:47;5.00;99.90
18839;DHT22;9548;56.920;14.804;2022-10-04T04:54:16;5.00;99.90
18839;DHT22;9548;56.920;14.804;2022-10-04T04:56:47;4.90;99.90
18839;DHT22;9548;56.920;14.804;2022-10-04T04:59:14;4.90;99.90
18839;DHT22;9548;56.920;14.804;2022-10-04T05:01:45;4.90;99.90
18839;DHT22;9548;56.920;14.804;2022-10-04T05:04:17;4.90;99.90
18839;DHT22;9548;56.920;14.804;2022-10-04T05:06:59;4.80;99.90
18839;DHT22;9548;56.920;14.804;2022-10-04T05:09:29;4.70;99.90
18839;DHT22;9548;56.920;14.804;2022-10-04T05:12:01;4.80;99.90
18839;DHT22;9548;56.920;14.804;2022-10-04T05:14:33;4.70;99.90
18839;DHT22;9548;56.920;14.804;2022-10-04T05:17:02;4.70;99.90
18839;DHT22;9548;56.920;14.804;2022-10-04T05:19:31;4.60;99.90
18839;DHT22;9548;56.920;14.804;2022-10-04T05:22:01;4.60;99.90
18839;DHT22;9548;56.920;14.804;2022-10-04T05:24:31;4.40;99.90
18839;DHT22;9548;56.920;14.804;2022-10-04T05:27:01;4.30;99.90
18839;DHT22;9548;56.920;14.804;2022-10-04T05:29:31;4.20;99.90
18839;DHT22;9548;56.920;14.804;2022-10-04T05:32:10;4.10;99.90
18839;DHT22;9548;56.920;14.804;2022-10-04T05:34:40;4.00;99.90
18839;DHT22;9548;56.920;14.804;2022-10-04T05:37:30;3.90;99.90
18839;DHT22;9548;56.920;14.804;2022-10-04T05:40:18;3.90;99.90
18839;DHT22;9548;56.920;14.804;2022-10-04T05:42:48;3.90;99.90
18839;DHT22;9548;56.920;14.804;2022-10-04T05:45:17;3.90;99.90
18839;DHT22;9548;56.920;14.804;2022-10-04T05:47:48;3.90;99.90
18839;DHT22;9548;56.920;14.804;2022-10-04T05:50:18;4.00;99.90
18839;DHT22;9548;56.920;14.804;2022-10-04T05:52:49;4.30;99.90
18839;DHT22;9548;56.920;14.804;2022-10-04T05:55:23;4.50;99.90
18839;DHT22;9548;56.920;14.804;2022-10-04T05:58:07;4.60;99.90
18839;DHT22;9548;56.920;14.804;2022-10-04T06:00:53;4.80;99.90
18839;DHT22;9548;56.920;14.804;2022-10-04T06:03:37;4.90;99.90
18839;DHT22;9548;56.920;14.804;2022-10-04T06:06:16;5.00;99.90
18839;DHT22;9548;56.920;14.804;2022-10-04T06:09:03;5.00;99.90
18839;DHT22;9548;56.920;14.804;2022-10-04T06:11:41;5.10;99.90
18839;DHT22;9548;56.920;14.804;2022-10-04T06:14:33;5.20;99.90
18839;DHT22;9548;56.920;14.804;2022-10-04T06:17:20;5.30;99.90
18839;DHT22;9548;56.920;14.804;2022-10-04T06:22:57;5.50;99.90
18839;DHT22;9548;56.920;14.804;2022-10-04T06:25:28;5.60;99.90
18839;DHT22;9548;56.920;14.804;2022-10-04T06:28:05;5.70;99.90
18839;DHT22;9548;56.920;14.804;2022-10-04T06:30:52;5.80;99.90
18839;DHT22;9548;56.920;14.804;2022-10-04T06:33:46;5.90;99.90
18839;DHT22;9548;56.920;14.804;2022-10-04T06:36:39;6.00;99.90
18839;DHT22;9548;56.920;14.804;2022-10-04T06:39:29;6.00;99.90
18839;DHT22;9548;56.920;14.804;2022-10-04T06:42:29;6.10;99.90
18839;DHT22;9548;56.920;14.804;2022-10-04T06:45:18;6.20;99.90
18839;DHT22;9548;56.920;14.804;2022-10-04T06:48:04;6.40;99.90
18839;DHT22;9548;56.920;14.804;2022-10-04T06:50:40;6.40;99.90
18839;DHT22;9548;56.920;14.804;2022-10-04T06:53:16;6.50;99.90
18839;DHT22;9548;56.920;14.804;2022-10-04T06:56:01;6.50;99.90
18839;DHT22;9548;56.920;14.804;2022-10-04T07:01:32;6.70;99.90
18839;DHT22;9548;56.920;14.804;2022-10-04T07:04:05;6.80;99.90
18839;DHT22;9548;56.920;14.804;2022-10-04T07:06:41;6.90;99.90
18839;DHT22;9548;56.920;14.804;2022-10-04T07:09:17;7.00;99.90
18839;DHT22;9548;56.920;14.804;2022-10-04T07:11:52;7.10;99.90
18839;DHT22;9548;56.920;14.804;2022-10-04T07:14:24;7.20;99.90
18839;DHT22;9548;56.920;14.804;2022-10-04T07:17:00;7.20;99.90
18839;DHT22;9548;56.920;14.804;2022-10-04T07:19:33;7.40;99.90
18839;DHT22;9548;56.920;14.804;2022-10-04T07:22:13;7.40;99.90
18839;DHT22;9548;56.920;14.804;2022-10-04T07:24:50;7.60;99.90
18839;DHT22;9548;56.920;14.804;2022-10-04T07:27:26;7.60;99.90
18839;DHT22;9548;56.920;14.804;2022-10-04T07:29:57;7.70;99.90
18839;DHT22;9548;56.920;14.804;2022-10-04T07:32:25;7.80;99.90
18839;DHT22;9548;56.920;14.804;2022-10-04T07:34:58;7.90;99.90
18839;DHT22;9548;56.920;14.804;2022-10-04T07:37:28;7.90;99.90
18839;DHT22;9548;56.920;14.804;2022-10-04T07:40:01;8.10;99.90
18839;DHT22;9548;56.920;14.804;2022-10-04T07:42:34;8.10;99.90
18839;DHT22;9548;56.920;14.804;2022-10-04T07:45:09;8.20;99.90
18839;DHT22;9548;56.920;14.804;2022-10-04T07:47:38;8.30;99.90
18839;DHT22;9548;56.920;14.804;2022-10-04T07:50:23;8.50;99.90
18839;DHT22;9548;56.920;14.804;2022-10-04T07:52:53;8.60;99.90
18839;DHT22;9548;56.920;14.804;2022-10-04T07:55:39;8.80;99.90
18839;DHT22;9548;56.920;14.804;2022-10-04T07:58:25;8.90;99.90
18839;DHT22;9548;56.920;14.804;2022-10-04T08:00:58;9.00;99.90
18839;DHT22;9548;56.920;14.804;2022-10-04T08:06:20;9.40;99.90
18839;DHT22;9548;56.920;14.804;2022-10-04T08:09:04;9.50;99.90
18839;DHT22;9548;56.920;14.804;2022-10-04T08:11:40;9.60;99.90
18839;DHT22;9548;56.920;14.804;2022-10-04T08:14:32;9.80;99.90
18839;DHT22;9548;56.920;14.804;2022-10-04T08:17:13;9.90;99.90
18839;DHT22;9548;56.920;14.804;2022-10-04T08:19:52;10.10;99.90
18839;DHT22;9548;56.920;14.804;2022-10-04T08:22:31;10.20;99.90
18839;DHT22;9548;56.920;14.804;2022-10-04T08:25:04;10.40;99.90
18839;DHT22;9548;56.920;14.804;2022-10-04T08:27:49;10.50;99.90
18839;DHT22;9548;56.920;14.804;2022-10-04T08:30:49;10.70;99.90
18839;DHT22;9548;56.920;14.804;2022-10-04T08:33:25;10.70;99.90
18839;DHT22;9548;56.920;14.804;2022-10-04T08:36:06;10.70;99.90
18839;DHT22;9548;56.920;14.804;2022-10-04T08:38:42;10.90;99.90
18839;DHT22;9548;56.920;14.804;2022-10-04T08:41:33;11.00;99.90
18839;DHT22;9548;56.920;14.804;2022-10-04T08:50:47;11.60;99.90
18839;DHT22;9548;56.920;14.804;2022-10-04T08:53:38;11.80;99.90
18839;DHT22;9548;56.920;14.804;2022-10-04T08:56:17;12.00;99.90
18839;DHT22;9548;56.920;14.804;2022-10-04T08:59:04;12.10;99.90
18839;DHT22;9548;56.920;14.804;2022-10-04T09:05:00;12.50;99.90
18839;DHT22;9548;56.920;14.804;2022-10-04T09:10:40;12.90;99.90
18839;DHT22;9548;56.920;14.804;2022-10-04T09:13:28;13.30;99.90
18839;DHT22;9548;56.920;14.804;2022-10-04T09:16:11;13.50;99.90
18839;DHT22;9548;56.920;14.804;2022-10-04T09:19:10;13.70;99.90
18839;DHT22;9548;56.920;14.804;2022-10-04T09:22:01;13.90;99.90
18839;DHT22;9548;56.920;14.804;2022-10-04T09:24:54;14.10;99.90
18839;DHT22;9548;56.920;14.804;2022-10-04T09:27:38;14.30;99.90
18839;DHT22;9548;56.920;14.804;2022-10-04T09:30:15;14.50;99.90
18839;DHT22;9548;56.920;14.804;2022-10-04T09:33:17;14.70;99.90
18839;DHT22;9548;56.920;14.804;2022-10-04T09:36:10;14.90;99.90
18839;DHT22;9548;56.920;14.804;2022-10-04T09:39:01;15.10;99.90
18839;DHT22;9548;56.920;14.804;2022-10-04T09:41:59;15.10;99.90
18839;DHT22;9548;56.920;14.804;2022-10-04T09:44:50;15.30;99.90
18839;DHT22;9548;56.920;14.804;2022-10-04T09:47:34;15.80;99.90
18839;DHT22;9548;56.920;14.804;2022-10-04T09:50:34;16.40;99.90
18839;DHT22;9548;56.920;14.804;2022-10-04T09:53:19;16.80;99.90
18839;DHT22;9548;56.920;14.804;2022-10-04T10:02:19;19.50;99.90
18839;DHT22;9548;56.920;14.804;2022-10-04T10:05:09;19.70;99.90
18839;DHT22;9548;56.920;14.804;2022-10-04T10:07:48;20.10;99.90
18839;DHT22;9548;56.920;14.804;2022-10-04T10:10:22;20.30;99.90
18839;DHT22;9548;56.920;14.804;2022-10-04T10:13:25;20.20;99.90
18839;DHT22;9548;56.920;14.804;2022-10-04T10:19:30;20.80;99.90
18839;DHT22;9548;56.920;14.804;2022-10-04T10:22:11;20.50;99.90
18839;DHT22;9548;56.920;14.804;2022-10-04T10:24:58;20.50;99.90
18839;DHT22;9548;56.920;14.804;2022-10-04T10:30:46;21.00;99.90
18839;DHT22;9548;56.920;14.804;2022-10-04T10:36:27;20.70;99.90
18839;DHT22;9548;56.920;14.804;2022-10-04T10:42:22;21.00;99.90
18839;DHT22;9548;56.920;14.804;2022-10-04T10:45:18;20.70;99.90
18839;DHT22;9548;56.920;14.804;2022-10-04T10:47:52;20.70;99.90
18839;DHT22;9548;56.920;14.804;2022-10-04T10:50:46;21.00;99.90
18839;DHT22;9548;56.920;14.804;2022-10-04T10:53:55;20.60;99.90
18839;DHT22;9548;56.920;14.804;2022-10-04T10:56:51;20.00;99.90
18839;DHT22;9548;56.920;14.804;2022-10-04T11:00:01;21.00;99.90
18839;DHT22;9548;56.920;14.804;2022-10-04T11:09:09;24.70;97.50
18839;DHT22;9548;56.920;14.804;2022-10-04T11:12:06;25.20;97.60
18839;DHT22;9548;56.920;14.804;2022-10-04T11:14:50;26.60;96.10
18839;DHT22;9548;56.920;14.804;2022-10-04T11:17:57;26.50;93.30
18839;DHT22;9548;56.920;14.804;2022-10-04T11:20:48;26.70;94.80
18839;DHT22;9548;56.920;14.804;2022-10-04T11:24:03;27.30;92.30
18839;DHT22;9548;56.920;14.804;2022-10-04T11:26:54;26.40;93.10
18839;DHT22;9548;56.920;14.804;2022-10-04T11:29:40;25.80;93.80
18839;DHT22;9548;56.920;14.804;2022-10-04T11:32:45;25.40;94.70
18839;DHT22;9548;56.920;14.804;2022-10-04T11:35:49;24.00;96.00
18839;DHT22;9548;56.920;14.804;2022-10-04T11:38:29;23.80;96.60
18839;DHT22;9548;56.920;14.804;2022-10-04T11:41:11;22.50;97.90
18839;DHT22;9548;56.920;14.804;2022-10-04T11:43:58;21.90;99.90
18839;DHT22;9548;56.920;14.804;2022-10-04T11:46:38;21.40;99.90
18839;DHT22;9548;56.920;14.804;2022-10-04T11:49:30;21.40;99.90
18839;DHT22;9548;56.920;14.804;2022-10-04T11:52:15;21.30;99.90
18839;DHT22;9548;56.920;14.804;2022-10-04T11:55:19;20.80;99.90
18839;DHT22;9548;56.920;14.804;2022-10-04T11:58:00;20.60;99.90
18839;DHT22;9548;56.920;14.804;2022-10-04T12:00:45;20.30;99.90
18839;DHT22;9548;56.920;14.804;2022-10-04T12:03:45;20.40;99.90
18839;DHT22;9548;56.920;14.804;2022-10-04T12:06:22;21.10;99.90
18839;DHT22;9548;56.920;14.804;2022-10-04T12:08:58;21.50;99.90
18839;DHT22;9548;56.920;14.804;2022-10-04T12:12:06;21.60;99.90
18839;DHT22;9548;56.920;14.804;2022-10-04T12:15:21;21.70;99.90
18839;DHT22;9548;56.920;14.804;2022-10-04T12:18:17;21.60;99.90
18839;DHT22;9548;56.920;14.804;2022-10-04T12:21:07;21.20;99.90
18839;DHT22;9548;56.920;14.804;2022-10-04T12:32:55;18.70;99.90
18839;DHT22;9548;56.920;14.804;2022-10-04T12:35:40;18.10;99.90
18839;DHT22;9548;56.920;14.804;2022-10-04T12:38:21;18.10;99.90
18839;DHT22;9548;56.920;14.804;2022-10-04T12:40:55;18.30;99.90
18839;DHT22;9548;56.920;14.804;2022-10-04T12:43:36;18.80;99.90
18839;DHT22;9548;56.920;14.804;2022-10-04T12:46:17;18.70;99.90
18839;DHT22;9548;56.920;14.804;2022-10-04T12:48:59;18.70;99.90
18839;DHT22;9548;56.920;14.804;2022-10-04T12:51:47;19.70;99.90
18839;DHT22;9548;56.920;14.804;2022-10-04T12:54:34;20.30;99.90
18839;DHT22;9548;56.920;14.804;2022-10-04T12:57:22;20.40;99.90
18839;DHT22;9548;56.920;14.804;2022-10-04T12:59:58;20.20;99.90
18839;DHT22;9548;56.920;14.804;2022-10-04T13:02:43;20.40;99.90
18839;DHT22;9548;56.920;14.804;2022-10-04T13:05:20;20.00;99.90
18839;DHT22;9548;56.920;14.804;2022-10-04T13:08:04;19.50;99.90
18839;DHT22;9548;56.920;14.804;2022-10-04T13:10:46;19.40;99.90
18839;DHT22;9548;56.920;14.804;2022-10-04T13:16:26;19.50;99.90
18839;DHT22;9548;56.920;14.804;2022-10-04T13:19:03;19.60;99.90
18839;DHT22;9548;56.920;14.804;2022-10-04T13:22:04;19.60;99.90
18839;DHT22;9548;56.920;14.804;2022-10-04T13:24:41;19.70;99.90
18839;DHT22;9548;56.920;14.804;2022-10-04T13:27:32;19.50;99.90
18839;DHT22;9548;56.920;14.804;2022-10-04T13:30:15;20.40;99.90
18839;DHT22;9548;56.920;14.804;2022-10-04T13:32:53;22.40;99.90
18839;DHT22;9548;56.920;14.804;2022-10-04T13:35:24;23.20;99.90
18839;DHT22;9548;56.920;14.804;2022-10-04T13:38:05;22.40;99.90
18839;DHT22;9548;56.920;14.804;2022-10-04T13:40:50;21.10;99.90
18839;DHT22;9548;56.920;14.804;2022-10-04T13:46:33;19.70;99.90
18839;DHT22;9548;56.920;14.804;2022-10-04T13:49:13;19.30;99.90
18839;DHT22;9548;56.920;14.804;2022-10-04T13:51:53;19.90;99.90
18839;DHT22;9548;56.920;14.804;2022-10-04T13:54:54;20.60;99.90
18839;DHT22;9548;56.920;14.804;2022-10-04T13:57:46;20.40;99.90
18839;DHT22;9548;56.920;14.804;2022-10-04T14:00:28;20.10;99.90
18839;DHT22;9548;56.920;14.804;2022-10-04T14:03:07;19.80;99.90
18839;DHT22;9548;56.920;14.804;2022-10-04T14:06:18;19.90;99.90
18839;DHT22;9548;56.920;14.804;2022-10-04T14:09:14;20.20;99.90
18839;DHT22;9548;56.920;14.804;2022-10-04T14:12:18;21.10;99.90
18839;DHT22;9548;56.920;14.804;2022-10-04T14:24:23;19.80;99.90
18839;DHT22;9548;56.920;14.804;2022-10-04T14:27:19;18.70;99.90
18839;DHT22;9548;56.920;14.804;2022-10-04T14:30:09;17.90;99.90
18839;DHT22;9548;56.920;14.804;2022-10-04T14:35:44;17.10;99.90
18839;DHT22;9548;56.920;14.804;2022-10-04T14:38:35;16.80;99.90
18839;DHT22;9548;56.920;14.804;2022-10-04T14:47:25;17.00;99.90
18839;DHT22;9548;56.920;14.804;2022-10-04T14:50:07;17.00;99.90
18839;DHT22;9548;56.920;14.804;2022-10-04T14:52:49;17.00;99.90
18839;DHT22;9548;56.920;14.804;2022-10-04T14:55:34;16.90;99.90
18839;DHT22;9548;56.920;14.804;2022-10-04T14:58:14;17.10;99.90
18839;DHT22;9548;56.920;14.804;2022-10-04T15:04:05;17.20;99.90
18839;DHT22;9548;56.920;14.804;2022-10-04T15:06:40;17.00;99.90
18839;DHT22;9548;56.920;14.804;2022-10-04T15:09:41;17.00;99.90
18839;DHT22;9548;56.920;14.804;2022-10-04T15:12:27;17.40;99.90
18839;DHT22;9548;56.920;14.804;2022-10-04T15:15:14;17.40;99.90
18839;DHT22;9548;56.920;14.804;2022-10-04T15:17:58;17.30;99.90
18839;DHT22;9548;56.920;14.804;2022-10-04T15:20:32;16.90;99.90
18839;DHT22;9548;56.920;14.804;2022-10-04T15:23:09;16.40;99.90
18839;DHT22;9548;56.920;14.804;2022-10-04T15:25:42;16.10;99.90
18839;DHT22;9548;56.920;14.804;2022-10-04T15:28:38;15.70;99.90
18839;DHT22;9548;56.920;14.804;2022-10-04T15:31:12;15.50;99.90
18839;DHT22;9548;56.920;14.804;2022-10-04T15:33:55;15.50;99.90
18839;DHT22;9548;56.920;14.804;2022-10-04T15:36:58;15.30;99.90
18839;DHT22;9548;56.920;14.804;2022-10-04T15:39:40;15.20;99.90
18839;DHT22;9548;56.920;14.804;2022-10-04T15:42:12;15.10;99.90
18839;DHT22;9548;56.920;14.804;2022-10-04T15:45:03;15.00;99.90
18839;DHT22;9548;56.920;14.804;2022-10-04T15:47:36;15.00;99.90
18839;DHT22;9548;56.920;14.804;2022-10-04T15:50:23;15.00;99.90
18839;DHT22;9548;56.920;14.804;2022-10-04T15:53:11;14.90;99.90
18839;DHT22;9548;56.920;14.804;2022-10-04T15:55:51;14.80;99.90
18839;DHT22;9548;56.920;14.804;2022-10-04T15:58:48;14.70;99.90
18839;DHT22;9548;56.920;14.804;2022-10-04T16:01:39;14.60;99.90
18839;DHT22;9548;56.920;14.804;2022-10-04T16:04:31;14.50;99.90
18839;DHT22;9548;56.920;14.804;2022-10-04T16:07:19;14.50;99.90
18839;DHT22;9548;56.920;14.804;2022-10-04T16:09:53;14.30;99.90
18839;DHT22;9548;56.920;14.804;2022-10-04T16:12:27;14.20;99.90
18839;DHT22;9548;56.920;14.804;2022-10-04T16:15:00;14.20;99.90
18839;DHT22;9548;56.920;14.804;2022-10-04T16:17:59;14.10;99.90
18839;DHT22;9548;56.920;14.804;2022-10-04T16:20:58;14.10;99.90
18839;DHT22;9548;56.920;14.804;2022-10-04T16:23:33;14.10;99.90
18839;DHT22;9548;56.920;14.804;2022-10-04T16:26:02;14.10;99.90
18839;DHT22;9548;56.920;14.804;2022-10-04T16:31:48;13.90;99.90
18839;DHT22;9548;56.920;14.804;2022-10-04T16:37:27;13.80;99.90
18839;DHT22;9548;56.920;14.804;2022-10-04T16:39:59;13.70;99.90
18839;DHT22;9548;56.920;14.804;2022-10-04T16:42:48;13.70;99.90
18839;DHT22;9548;56.920;14.804;2022-10-04T16:45:43;13.60;99.90
18839;DHT22;9548;56.920;14.804;2022-10-04T16:48:29;13.60;99.90
18839;DHT22;9548;56.920;14.804;2022-10-04T16:54:33;13.60;99.90
18839;DHT22;9548;56.920;14.804;2022-10-04T16:57:13;13.50;99.90
18839;DHT22;9548;56.920;14.804;2022-10-04T16:59:53;13.50;99.90
18839;DHT22;9548;56.920;14.804;2022-10-04T17:02:57;13.40;99.90
18839;DHT22;9548;56.920;14.804;2022-10-04T17:05:44;13.40;99.90
18839;DHT22;9548;56.920;14.804;2022-10-04T17:08:41;13.40;99.90
18839;DHT22;9548;56.920;14.804;2022-10-04T17:11:31;13.30;99.90
18839;DHT22;9548;56.920;14.804;2022-10-04T17:14:17;13.20;99.90
18839;DHT22;9548;56.920;14.804;2022-10-04T17:16:51;13.20;99.90
18839;DHT22;9548;56.920;14.804;2022-10-04T17:19:30;13.20;99.90
18839;DHT22;9548;56.920;14.804;2022-10-04T17:22:06;13.20;99.90
18839;DHT22;9548;56.920;14.804;2022-10-04T17:24:45;13.20;99.90
18839;DHT22;9548;56.920;14.804;2022-10-04T17:27:40;13.10;99.90
18839;DHT22;9548;56.920;14.804;2022-10-04T17:30:18;13.20;99.90
18839;DHT22;9548;56.920;14.804;2022-10-04T17:35:56;13.00;99.90
18839;DHT22;9548;56.920;14.804;2022-10-04T17:38:29;13.00;99.90
18839;DHT22;9548;56.920;14.804;2022-10-04T17:41:10;13.00;99.90
18839;DHT22;9548;56.920;14.804;2022-10-04T17:44:13;12.90;99.90
18839;DHT22;9548;56.920;14.804;2022-10-04T17:46:51;12.90;99.90
18839;DHT22;9548;56.920;14.804;2022-10-04T17:49:28;12.80;99.90
18839;DHT22;9548;56.920;14.804;2022-10-04T17:52:16;12.80;99.90
18839;DHT22;9548;56.920;14.804;2022-10-04T17:55:13;12.70;99.90
18839;DHT22;9548;56.920;14.804;2022-10-04T17:57:48;12.70;99.90
18839;DHT22;9548;56.920;14.804;2022-10-04T18:00:17;12.70;99.90
18839;DHT22;9548;56.920;14.804;2022-10-04T18:03:11;12.70;99.90
18839;DHT22;9548;56.920;14.804;2022-10-04T18:05:49;12.70;99.90
18839;DHT22;9548;56.920;14.804;2022-10-04T18:08:37;12.70;99.90
18839;DHT22;9548;56.920;14.804;2022-10-04T18:11:13;12.60;99.90
18839;DHT22;9548;56.920;14.804;2022-10-04T18:13:46;12.70;99.90
18839;DHT22;9548;56.920;14.804;2022-10-04T18:16:19;12.60;99.90
18839;DHT22;9548;56.920;14.804;2022-10-04T18:18:50;12.60;99.90
18839;DHT22;9548;56.920;14.804;2022-10-04T18:21:19;12.50;99.90
18839;DHT22;9548;56.920;14.804;2022-10-04T18:23:53;12.50;99.90
18839;DHT22;9548;56.920;14.804;2022-10-04T18:26:21;12.50;99.90
18839;DHT22;9548;56.920;14.804;2022-10-04T18:28:50;12.50;99.90
18839;DHT22;9548;56.920;14.804;2022-10-04T18:31:26;12.50;99.90
18839;DHT22;9548;56.920;14.804;2022-10-04T18:33:56;12.50;99.90
18839;DHT22;9548;56.920;14.804;2022-10-04T18:36:26;12.40;99.90
18839;DHT22;9548;56.920;14.804;2022-10-04T18:39:17;12.40;99.90
18839;DHT22;9548;56.920;14.804;2022-10-04T18:41:53;12.30;99.90
18839;DHT22;9548;56.920;14.804;2022-10-04T18:44:24;12.40;99.90